Aérodrome :
LOGIN :

S'inscrire | Disclaimer

   EN    FR    IT 

 










Légende :    VFR   VFR Marginal   IFR   IFR Intensif   IFR Très Intensif
Visi : 
Plafond : 
>= 8 km
>= 3000ft
5 à 8 km
1000 à 3000 ft
1500m à 5 km
500 à 1000 ft
800 à 1500m
200 à 500 ft
< 800m
< 200 ft
Symboles :   Orages  Brouillard  Fortes neiges  Fortes précipitations  Vent > 20 kt
SIGMETs :   Divers  Orages  Givrage  Turbulence  Onde Orograph.  Cendres Volcan.






- Altitude de l'aérodrome : 119 ft
- Code IATA : WAT


EIWF - Waterford

DERNIER METAR :
  • 121800Z 29005KT CAVOK 03/M01 Q1006

METARs EXPIRÉS :
  • 121730Z 25005KT 220V280 9999 SCT040 06/01 Q1006
  • 121700Z VRB03KT CAVOK 06/01 Q1006
  • 121630Z 32007KT 290V360 CAVOK 07/01 Q1005
  • 121600Z 33008KT 290V010 CAVOK 08/02 Q1005
  • 121530Z 34012KT 310V030 CAVOK 08/01 Q1004

TAF TAF EIWF
Valide du 12 à 18h jusqu'au 13 à 03h UTC


121700Z 1218/1303 31007KT 9999 SCT040
PROB40
TEMPO 1301/1303 3000 BR BKN008
ATIS : +353 51 877 000



MET'MAP, la Météo Aéronautique d'un coup d'oeil ! - Copyright ORBIFLY Décembre 2007 - Disclaimer

ORBIFLY MET'MAP TEAM :

Programmation & Développement : Alexandra Zaïnal
Conception & Développement : Baudouin d'Aumeries
Co-Programmation & Développement : Marc-Olivier Méhu
Soutien technique & logistique : Manuel Goepfert

Contact : metmap@orbifly.com




SOURCES & CREDITS :

   NOAA